createdAt,value
2023-04-21T00:00:03.211Z,7.20
2023-04-21T00:02:30.148Z,7.20
2023-04-21T00:04:57.193Z,7.30
2023-04-21T00:07:24.870Z,7.30
2023-04-21T00:09:51.728Z,7.30
2023-04-21T00:12:19.931Z,7.20
2023-04-21T00:14:46.750Z,7.20
2023-04-21T00:17:13.659Z,7.20
2023-04-21T00:19:40.481Z,7.20
2023-04-21T00:22:12.170Z,7.30
2023-04-21T00:24:38.942Z,7.30
2023-04-21T00:27:06.136Z,7.30
2023-04-21T00:29:32.932Z,7.20
2023-04-21T00:32:00.855Z,7.20
2023-04-21T00:34:27.814Z,7.20
2023-04-21T00:36:54.744Z,7.20
2023-04-21T00:39:21.692Z,7.20
2023-04-21T00:41:48.696Z,7.20
2023-04-21T00:44:15.496Z,7.20
2023-04-21T00:46:43.943Z,7.20
2023-04-21T00:49:13.366Z,7.30
2023-04-21T00:51:40.807Z,7.20
2023-04-21T00:54:09.417Z,7.20
2023-04-21T00:56:36.952Z,7.20
2023-04-21T00:59:04.202Z,7.20
2023-04-21T01:01:32.839Z,7.20
2023-04-21T01:04:01.025Z,7.20
2023-04-21T01:06:29.375Z,7.20
2023-04-21T01:08:56.422Z,7.20
2023-04-21T01:11:23.262Z,7.20
2023-04-21T01:13:54.069Z,7.20
2023-04-21T01:16:21.813Z,7.10
2023-04-21T01:18:48.805Z,7.10
2023-04-21T01:21:19.738Z,7.10
2023-04-21T01:23:46.669Z,7.20
2023-04-21T01:26:13.616Z,7.20
2023-04-21T01:28:40.568Z,7.20
2023-04-21T01:31:07.463Z,7.20
2023-04-21T01:36:09.829Z,7.20
2023-04-21T01:38:42.791Z,7.20
2023-04-21T01:41:10.957Z,7.20
2023-04-21T01:43:38.019Z,7.20
2023-04-21T01:46:06.020Z,7.20
2023-04-21T01:48:32.913Z,7.30
2023-04-21T01:50:59.790Z,7.30
2023-04-21T01:53:27.152Z,7.30
2023-04-21T01:55:54.074Z,7.30
2023-04-21T01:58:21.681Z,7.30
2023-04-21T02:00:48.498Z,7.30
2023-04-21T02:03:15.397Z,7.30
2023-04-21T02:05:42.345Z,7.30
2023-04-21T02:08:09.151Z,7.30
2023-04-21T02:10:36.065Z,7.30
2023-04-21T02:13:02.959Z,7.30
2023-04-21T02:15:29.913Z,7.30
2023-04-21T02:17:56.952Z,7.30
2023-04-21T02:20:23.849Z,7.40
2023-04-21T02:22:50.749Z,7.40
2023-04-21T02:25:17.620Z,7.40
2023-04-21T02:27:44.414Z,7.50
2023-04-21T02:30:11.408Z,7.50
2023-04-21T02:32:38.606Z,7.40
2023-04-21T02:35:06.102Z,7.50
2023-04-21T02:37:33.062Z,7.50
2023-04-21T02:39:59.866Z,7.50
2023-04-21T02:42:26.912Z,7.50
2023-04-21T02:44:53.697Z,7.50
2023-04-21T02:47:20.795Z,7.50
2023-04-21T02:49:47.585Z,7.50
2023-04-21T02:52:14.410Z,7.50
2023-04-21T02:54:41.239Z,7.50
2023-04-21T02:57:08.051Z,7.50
2023-04-21T02:59:34.829Z,7.50
2023-04-21T03:02:01.812Z,7.50
2023-04-21T03:04:28.858Z,7.50
2023-04-21T03:06:55.873Z,7.40
2023-04-21T03:09:22.697Z,7.40
2023-04-21T03:11:49.492Z,7.50
2023-04-21T03:14:16.313Z,7.30
2023-04-21T03:16:43.286Z,7.30
2023-04-21T03:19:10.122Z,7.30
2023-04-21T03:21:39.078Z,7.20
2023-04-21T03:24:07.544Z,7.30
2023-04-21T03:26:34.491Z,7.10
2023-04-21T03:29:01.548Z,7.10
2023-04-21T03:31:28.438Z,7.10
2023-04-21T03:33:55.314Z,7.10
2023-04-21T03:36:22.212Z,7.00
2023-04-21T03:38:49.045Z,7.00
2023-04-21T03:41:15.887Z,7.00
2023-04-21T03:43:42.789Z,7.00
2023-04-21T03:46:18.224Z,6.90
2023-04-21T03:48:45.829Z,6.90
2023-04-21T03:51:12.610Z,6.80
2023-04-21T03:53:39.546Z,6.80
2023-04-21T03:56:06.642Z,6.80
2023-04-21T03:58:33.439Z,6.80
2023-04-21T04:01:00.499Z,6.80
2023-04-21T04:03:27.550Z,6.80
2023-04-21T04:05:54.516Z,6.70
2023-04-21T04:08:21.865Z,6.70
2023-04-21T04:10:48.774Z,6.70
2023-04-21T04:13:15.964Z,6.70
2023-04-21T04:15:42.828Z,6.80
2023-04-21T04:18:09.710Z,6.80
2023-04-21T04:20:36.756Z,6.90
2023-04-21T04:23:03.731Z,6.90
2023-04-21T04:25:31.198Z,7.00
2023-04-21T04:27:58.063Z,7.00
2023-04-21T04:30:28.024Z,7.00
2023-04-21T04:32:55.518Z,7.00
2023-04-21T04:35:22.472Z,7.10
2023-04-21T04:37:49.887Z,7.10
2023-04-21T04:40:16.728Z,7.20
2023-04-21T04:42:45.628Z,7.20
2023-04-21T04:45:14.029Z,7.20
2023-04-21T04:47:40.969Z,7.20
2023-04-21T04:50:08.467Z,7.20
2023-04-21T04:52:35.623Z,7.20
2023-04-21T04:55:02.441Z,7.20
2023-04-21T04:57:29.201Z,7.20
2023-04-21T04:59:56.404Z,7.20
2023-04-21T05:02:24.539Z,7.30
2023-04-21T05:04:51.839Z,7.30
2023-04-21T05:07:18.838Z,7.40
2023-04-21T05:09:45.625Z,7.30
2023-04-21T05:12:12.397Z,7.40
2023-04-21T05:14:39.177Z,7.40
2023-04-21T05:17:06.006Z,7.50
2023-04-21T05:19:36.310Z,7.50
2023-04-21T05:22:03.615Z,7.70
2023-04-21T05:24:30.518Z,7.70
2023-04-21T05:26:57.310Z,7.90
2023-04-21T05:29:24.091Z,7.90
2023-04-21T05:31:51.085Z,7.80
2023-04-21T05:34:18.083Z,7.80
2023-04-21T05:36:44.981Z,7.90
2023-04-21T05:39:11.851Z,7.80
2023-04-21T05:41:38.851Z,7.90
2023-04-21T05:44:05.832Z,7.90
2023-04-21T05:46:35.079Z,7.90
2023-04-21T05:49:05.061Z,7.90
2023-04-21T05:51:32.277Z,8.00
2023-04-21T05:53:59.141Z,8.00
2023-04-21T05:56:26.141Z,8.00
2023-04-21T05:58:52.940Z,8.10
2023-04-21T06:01:19.709Z,8.20
2023-04-21T06:03:49.267Z,8.80
2023-04-21T06:06:16.430Z,9.40
2023-04-21T06:08:43.290Z,9.80
2023-04-21T06:11:10.231Z,10.20
2023-04-21T06:13:38.588Z,10.70
2023-04-21T06:16:06.434Z,11.00
2023-04-21T06:18:33.404Z,11.10
2023-04-21T06:21:00.267Z,11.40
2023-04-21T06:23:27.070Z,11.70
2023-04-21T06:26:05.439Z,11.70
2023-04-21T06:28:33.249Z,11.70
2023-04-21T06:31:01.724Z,12.00
2023-04-21T06:33:28.759Z,12.30
2023-04-21T06:35:56.060Z,12.30
2023-04-21T06:38:23.119Z,12.10
2023-04-21T06:40:50.938Z,12.00
2023-04-21T06:43:17.730Z,11.80
2023-04-21T06:45:44.558Z,11.60
2023-04-21T06:48:11.405Z,11.50
2023-04-21T06:50:38.252Z,11.90
2023-04-21T06:53:05.293Z,12.40
2023-04-21T06:55:32.222Z,12.80
2023-04-21T06:57:59.037Z,12.90
2023-04-21T07:00:25.924Z,12.50
2023-04-21T07:02:52.865Z,12.60
2023-04-21T07:05:19.817Z,12.90
2023-04-21T07:07:46.594Z,13.50
2023-04-21T07:10:19.160Z,13.80
2023-04-21T07:12:46.583Z,14.10
2023-04-21T07:15:13.541Z,14.20
2023-04-21T07:17:40.380Z,14.50
2023-04-21T07:20:08.163Z,14.90
2023-04-21T07:22:36.237Z,15.00
2023-04-21T07:25:06.588Z,15.10
2023-04-21T07:27:34.855Z,14.80
2023-04-21T07:30:01.765Z,14.40
2023-04-21T07:32:28.581Z,14.50
2023-04-21T07:34:55.564Z,14.70
2023-04-21T07:37:23.998Z,14.80
2023-04-21T07:39:51.776Z,15.00
2023-04-21T07:42:18.834Z,15.30
2023-04-21T07:44:45.790Z,15.30
2023-04-21T07:47:12.814Z,15.50
2023-04-21T07:49:39.642Z,16.10
2023-04-21T07:52:06.694Z,15.70
2023-04-21T07:54:33.684Z,15.50
2023-04-21T07:57:01.827Z,15.50
2023-04-21T07:59:28.700Z,15.60
2023-04-21T08:01:55.518Z,15.70
2023-04-21T08:04:22.544Z,16.10
2023-04-21T08:06:50.000Z,16.10
2023-04-21T08:11:58.159Z,16.20
2023-04-21T08:17:07.721Z,16.30
2023-04-21T08:19:34.587Z,16.30
2023-04-21T08:22:01.488Z,15.90
2023-04-21T08:24:28.322Z,15.70
2023-04-21T08:26:55.372Z,15.40
2023-04-21T08:29:22.715Z,15.20
2023-04-21T08:31:49.592Z,15.30
2023-04-21T08:34:16.507Z,15.10
2023-04-21T08:36:44.167Z,14.50
2023-04-21T08:39:11.427Z,14.30
2023-04-21T08:41:40.724Z,13.60
2023-04-21T08:44:08.633Z,13.10
2023-04-21T08:46:36.928Z,13.30
2023-04-21T08:49:04.073Z,13.50
2023-04-21T08:51:31.950Z,13.80
2023-04-21T08:53:58.851Z,13.70
2023-04-21T08:56:28.777Z,14.10
2023-04-21T08:58:56.630Z,14.30
2023-04-21T09:01:23.528Z,14.10
2023-04-21T09:03:50.726Z,14.00
2023-04-21T09:06:18.276Z,13.70
2023-04-21T09:08:56.148Z,13.70
2023-04-21T09:11:23.519Z,13.90
2023-04-21T09:13:50.519Z,14.20
2023-04-21T09:16:21.446Z,14.30
2023-04-21T09:18:49.656Z,14.20
2023-04-21T09:21:18.305Z,14.00
2023-04-21T09:23:53.218Z,13.50
2023-04-21T09:26:25.210Z,13.20
2023-04-21T09:28:53.225Z,12.90
2023-04-21T09:31:29.382Z,12.60
2023-04-21T09:34:00.843Z,12.50
2023-04-21T09:36:29.917Z,12.70
2023-04-21T09:41:32.827Z,13.00
2023-04-21T09:44:16.634Z,13.20
2023-04-21T09:46:45.537Z,13.50
2023-04-21T09:49:16.430Z,13.90
2023-04-21T09:52:10.287Z,13.90
2023-04-21T09:54:34.652Z,13.80
2023-04-21T09:57:04.123Z,14.10
2023-04-21T09:59:36.778Z,13.90
2023-04-21T10:02:08.005Z,13.90
2023-04-21T10:04:37.707Z,13.70
2023-04-21T10:07:05.377Z,13.70
2023-04-21T10:09:39.129Z,13.80
2023-04-21T10:12:09.158Z,14.10
2023-04-21T10:14:36.688Z,14.30
2023-04-21T10:17:10.048Z,14.20
2023-04-21T10:19:47.582Z,14.10
2023-04-21T10:22:14.477Z,14.20
2023-04-21T10:24:42.245Z,14.20
2023-04-21T10:27:13.212Z,14.40
2023-04-21T10:29:55.206Z,14.60
2023-04-21T10:32:42.888Z,14.60
2023-04-21T10:35:50.169Z,14.40
2023-04-21T10:38:43.770Z,14.50
2023-04-21T10:41:30.823Z,14.40
2023-04-21T10:44:07.378Z,14.20
2023-04-21T10:46:39.739Z,14.10
2023-04-21T10:49:11.093Z,13.90
2023-04-21T10:52:00.002Z,14.10
2023-04-21T10:54:28.424Z,14.20
2023-04-21T10:56:59.840Z,14.30
2023-04-21T10:59:27.395Z,14.60
2023-04-21T11:01:55.105Z,14.40
2023-04-21T11:04:23.487Z,14.20
2023-04-21T11:07:23.462Z,14.30
2023-04-21T11:10:16.854Z,14.30
2023-04-21T11:12:43.733Z,14.30
2023-04-21T11:15:13.455Z,14.40
2023-04-21T11:17:43.577Z,14.50
2023-04-21T11:20:10.806Z,14.50
2023-04-21T11:22:39.033Z,14.60
2023-04-21T11:25:06.504Z,14.50
2023-04-21T11:27:33.341Z,14.30
2023-04-21T11:30:04.129Z,14.40
2023-04-21T11:32:31.155Z,14.50
2023-04-21T11:34:58.189Z,14.70
2023-04-21T11:37:30.066Z,14.70
2023-04-21T11:39:58.769Z,14.60
2023-04-21T11:42:25.861Z,14.70
2023-04-21T11:44:56.691Z,14.80
2023-04-21T11:47:26.116Z,14.80
2023-04-21T11:49:58.399Z,14.90
2023-04-21T11:52:33.093Z,15.10
2023-04-21T11:55:28.808Z,15.50
2023-04-21T11:57:57.850Z,15.30
2023-04-21T12:00:29.566Z,15.10
2023-04-21T12:02:57.291Z,15.00
2023-04-21T12:05:24.457Z,15.10
2023-04-21T12:07:53.961Z,15.10
2023-04-21T12:10:21.672Z,15.30
2023-04-21T12:12:49.001Z,15.40
2023-04-21T12:15:21.587Z,15.60
2023-04-21T12:17:50.977Z,15.60
2023-04-21T12:20:22.118Z,15.80
2023-04-21T12:22:49.509Z,15.90
2023-04-21T12:25:16.996Z,15.80
2023-04-21T12:27:51.207Z,15.70
2023-04-21T12:30:18.877Z,15.60
2023-04-21T12:32:46.159Z,15.50
2023-04-21T12:35:13.015Z,15.40
2023-04-21T12:37:39.860Z,15.40
2023-04-21T12:40:08.222Z,15.50
2023-04-21T12:42:37.443Z,15.50
2023-04-21T12:45:05.513Z,15.60
2023-04-21T12:47:32.493Z,15.70
2023-04-21T12:49:59.313Z,15.90
2023-04-21T12:52:27.012Z,16.00
2023-04-21T12:54:53.995Z,15.70
2023-04-21T12:57:21.396Z,15.60
2023-04-21T12:59:48.949Z,15.50
2023-04-21T13:02:16.413Z,15.70
2023-04-21T13:04:43.298Z,15.70
2023-04-21T13:07:10.653Z,15.60
2023-04-21T13:09:37.615Z,15.50
2023-04-21T13:12:04.789Z,15.60
2023-04-21T13:14:31.870Z,15.80
2023-04-21T13:16:59.112Z,16.00
2023-04-21T13:19:26.728Z,16.10
2023-04-21T13:21:54.359Z,16.10
2023-04-21T13:24:21.824Z,16.10
2023-04-21T13:26:48.789Z,16.20
2023-04-21T13:29:16.150Z,16.30
2023-04-21T13:31:43.078Z,16.20
2023-04-21T13:34:09.943Z,16.00
2023-04-21T13:36:36.862Z,16.00
2023-04-21T13:39:05.783Z,16.10
2023-04-21T13:41:32.704Z,16.30
2023-04-21T13:43:59.584Z,16.60
2023-04-21T13:46:26.528Z,16.60
2023-04-21T13:48:53.946Z,16.70
2023-04-21T13:51:21.112Z,16.80
2023-04-21T13:53:48.782Z,16.90
2023-04-21T13:56:16.350Z,16.80
2023-04-21T13:58:43.479Z,16.70
2023-04-21T14:01:10.490Z,16.50
2023-04-21T14:03:37.460Z,16.40
2023-04-21T14:06:04.946Z,16.50
2023-04-21T14:08:31.945Z,16.70
2023-04-21T14:10:58.952Z,16.80
2023-04-21T14:13:36.418Z,16.80
2023-04-21T14:16:09.099Z,16.70
2023-04-21T14:18:36.563Z,16.60
2023-04-21T14:21:03.453Z,16.70
2023-04-21T14:23:30.575Z,16.80
2023-04-21T14:25:57.446Z,17.00
2023-04-21T14:28:24.308Z,17.30
2023-04-21T14:30:51.179Z,17.60
2023-04-21T14:33:18.099Z,17.60
2023-04-21T14:35:45.099Z,17.60
2023-04-21T14:38:11.932Z,17.40
2023-04-21T14:40:38.758Z,17.30
2023-04-21T14:43:06.027Z,17.40
2023-04-21T14:45:33.155Z,17.40
2023-04-21T14:48:00.136Z,17.40
2023-04-21T14:50:27.030Z,17.60
2023-04-21T14:52:53.852Z,17.70
2023-04-21T14:55:20.822Z,17.60
2023-04-21T14:57:47.604Z,17.60
2023-04-21T15:00:14.766Z,17.40
2023-04-21T15:02:41.800Z,17.10
2023-04-21T15:05:09.111Z,17.00
2023-04-21T15:07:36.320Z,17.00
2023-04-21T15:10:03.468Z,17.00
2023-04-21T15:12:30.429Z,17.10
2023-04-21T15:14:57.206Z,17.00
2023-04-21T15:17:24.199Z,17.20
2023-04-21T15:19:51.627Z,17.30
2023-04-21T15:22:18.828Z,17.30
2023-04-21T15:24:46.473Z,17.30
2023-04-21T15:27:13.260Z,17.20
2023-04-21T15:29:40.301Z,17.20
2023-04-21T15:32:07.146Z,17.10
2023-04-21T15:34:34.095Z,17.10
2023-04-21T15:37:00.939Z,17.20
2023-04-21T15:39:27.846Z,17.20
2023-04-21T15:41:55.248Z,17.20
2023-04-21T15:44:22.167Z,17.10
2023-04-21T15:46:49.003Z,17.10
2023-04-21T15:49:16.061Z,17.00
2023-04-21T15:51:43.200Z,16.80
2023-04-21T15:54:10.595Z,16.70
2023-04-21T15:56:37.478Z,16.70
2023-04-21T15:59:04.820Z,16.70
2023-04-21T16:01:31.722Z,16.80
2023-04-21T16:03:59.709Z,16.90
2023-04-21T16:06:29.464Z,16.90
2023-04-21T16:08:56.876Z,17.00
2023-04-21T16:11:25.104Z,17.10
2023-04-21T16:13:52.202Z,17.10
2023-04-21T16:16:19.015Z,17.00
2023-04-21T16:18:45.940Z,16.90
2023-04-21T16:21:13.242Z,16.90
2023-04-21T16:23:40.528Z,16.80
2023-04-21T16:26:09.220Z,16.70
2023-04-21T16:28:36.249Z,16.60
2023-04-21T16:31:03.339Z,16.50
2023-04-21T16:33:30.864Z,16.10
2023-04-21T16:35:57.863Z,14.80
2023-04-21T16:38:25.077Z,13.40
2023-04-21T16:40:52.222Z,12.20
2023-04-21T16:43:19.095Z,11.70
2023-04-21T16:45:46.008Z,11.30
2023-04-21T16:48:13.261Z,11.10
2023-04-21T16:50:42.013Z,11.00
2023-04-21T16:53:09.115Z,10.80
2023-04-21T16:55:36.016Z,10.70
2023-04-21T16:58:02.998Z,10.80
2023-04-21T17:00:30.521Z,10.70
2023-04-21T17:02:57.847Z,10.70
2023-04-21T17:05:25.742Z,10.70
2023-04-21T17:07:52.576Z,10.70
2023-04-21T17:10:19.491Z,10.70
2023-04-21T17:12:46.471Z,10.70
2023-04-21T17:15:13.394Z,10.80
2023-04-21T17:17:43.044Z,10.80
2023-04-21T17:20:11.869Z,11.00
2023-04-21T17:22:39.683Z,10.90
2023-04-21T17:25:07.927Z,11.00
2023-04-21T17:27:36.778Z,11.00
2023-04-21T17:30:04.919Z,11.00
2023-04-21T17:32:34.023Z,10.90
2023-04-21T17:35:01.640Z,10.90
2023-04-21T17:37:30.323Z,10.70
2023-04-21T17:39:59.264Z,10.60
2023-04-21T17:42:29.179Z,10.60
2023-04-21T17:44:55.991Z,10.80
2023-04-21T17:47:22.915Z,10.70
2023-04-21T17:49:49.748Z,10.80
2023-04-21T17:52:17.278Z,10.90
2023-04-21T17:54:44.249Z,11.00
2023-04-21T17:57:11.982Z,11.00
2023-04-21T17:59:39.367Z,11.00
2023-04-21T18:02:06.828Z,10.90
2023-04-21T18:04:34.804Z,10.90
2023-04-21T18:07:02.824Z,10.90
2023-04-21T18:09:32.739Z,10.80
2023-04-21T18:11:59.598Z,10.80
2023-04-21T18:14:26.966Z,10.80
2023-04-21T18:16:54.195Z,10.70
2023-04-21T18:19:21.053Z,10.70
2023-04-21T18:21:47.891Z,10.70
2023-04-21T18:24:15.397Z,10.70
2023-04-21T18:26:42.725Z,10.80
2023-04-21T18:29:09.562Z,10.80
2023-04-21T18:31:36.544Z,10.80
2023-04-21T18:34:03.474Z,10.80
2023-04-21T18:36:33.032Z,10.80
2023-04-21T18:39:00.920Z,10.80
2023-04-21T18:41:27.919Z,10.80
2023-04-21T18:43:54.985Z,10.80
2023-04-21T18:46:22.312Z,10.90
2023-04-21T18:48:49.242Z,11.00
2023-04-21T18:51:16.116Z,11.10
2023-04-21T18:53:43.425Z,11.20
2023-04-21T18:56:10.427Z,10.90
2023-04-21T18:58:37.324Z,11.00
2023-04-21T19:01:04.189Z,11.00
2023-04-21T19:03:31.424Z,10.90
2023-04-21T19:05:58.474Z,11.00
2023-04-21T19:08:38.759Z,10.90
2023-04-21T19:11:10.401Z,10.80
2023-04-21T19:13:37.633Z,11.00
2023-04-21T19:16:05.424Z,11.00
2023-04-21T19:18:32.489Z,10.90
2023-04-21T19:20:59.329Z,10.90
2023-04-21T19:23:26.157Z,10.90
2023-04-21T19:25:55.217Z,10.90
2023-04-21T19:28:22.051Z,10.90
2023-04-21T19:30:49.165Z,11.20
2023-04-21T19:33:16.433Z,11.30
2023-04-21T19:35:43.461Z,11.30
2023-04-21T19:38:10.514Z,11.30
2023-04-21T19:40:37.458Z,11.30
2023-04-21T19:43:05.042Z,11.20
2023-04-21T19:45:31.939Z,11.10
2023-04-21T19:47:58.917Z,11.10
2023-04-21T19:50:26.029Z,11.00
2023-04-21T19:52:52.969Z,11.00
2023-04-21T19:55:19.733Z,10.90
2023-04-21T19:57:46.487Z,10.80
2023-04-21T20:00:14.189Z,10.70
2023-04-21T20:02:41.129Z,10.80
2023-04-21T20:05:09.542Z,10.80
2023-04-21T20:07:37.383Z,10.70
2023-04-21T20:10:06.054Z,10.70
2023-04-21T20:12:33.192Z,10.60
2023-04-21T20:15:01.268Z,10.70
2023-04-21T20:17:29.133Z,10.80
2023-04-21T20:19:56.125Z,10.90
2023-04-21T20:22:22.976Z,10.80
2023-04-21T20:24:52.124Z,10.80
2023-04-21T20:27:19.064Z,10.80
2023-04-21T20:29:46.868Z,10.80
2023-04-21T20:32:14.051Z,10.80
2023-04-21T20:34:41.058Z,10.80
2023-04-21T20:37:08.029Z,10.60
2023-04-21T20:39:34.876Z,10.60
2023-04-21T20:42:12.682Z,10.50
2023-04-21T20:44:42.817Z,10.50
2023-04-21T20:47:10.838Z,10.50
2023-04-21T20:49:38.818Z,10.50
2023-04-21T20:52:06.153Z,10.50
2023-04-21T20:54:34.945Z,10.50
2023-04-21T20:57:02.456Z,10.50
2023-04-21T20:59:29.367Z,10.50
2023-04-21T21:01:56.292Z,10.30
2023-04-21T21:04:23.384Z,10.20
2023-04-21T21:06:50.585Z,10.10
2023-04-21T21:09:19.203Z,10.00
2023-04-21T21:11:46.214Z,9.90
2023-04-21T21:14:13.270Z,9.80
2023-04-21T21:16:40.683Z,9.80
2023-04-21T21:19:07.707Z,9.80
2023-04-21T21:21:34.564Z,9.70
2023-04-21T21:24:01.461Z,9.60
2023-04-21T21:26:29.039Z,9.60
2023-04-21T21:28:56.214Z,9.60
2023-04-21T21:31:23.286Z,9.60
2023-04-21T21:33:50.425Z,9.80
2023-04-21T21:36:17.285Z,10.00
2023-04-21T21:38:44.232Z,9.90
2023-04-21T21:41:12.503Z,10.10
2023-04-21T21:43:39.395Z,10.10
2023-04-21T21:46:06.470Z,10.00
2023-04-21T21:48:33.463Z,9.80
2023-04-21T21:51:00.441Z,9.70
2023-04-21T21:53:27.266Z,9.60
2023-04-21T21:55:54.268Z,9.90
2023-04-21T21:58:21.553Z,9.80
2023-04-21T22:00:51.932Z,9.90
2023-04-21T22:03:19.787Z,9.70
2023-04-21T22:05:47.179Z,9.60
2023-04-21T22:08:15.708Z,9.40
2023-04-21T22:10:43.249Z,9.20
2023-04-21T22:13:10.779Z,9.10
2023-04-21T22:15:38.817Z,9.10
2023-04-21T22:18:07.386Z,9.00
2023-04-21T22:20:34.342Z,9.00
2023-04-21T22:23:01.133Z,9.00
2023-04-21T22:25:28.037Z,9.00
2023-04-21T22:27:55.888Z,8.90
2023-04-21T22:30:23.207Z,8.90
2023-04-21T22:32:50.257Z,8.90
2023-04-21T22:35:17.366Z,8.80
2023-04-21T22:37:44.189Z,8.70
2023-04-21T22:40:11.457Z,8.70
2023-04-21T22:42:38.626Z,8.70
2023-04-21T22:45:05.954Z,8.60
2023-04-21T22:47:33.674Z,8.60
2023-04-21T22:50:00.570Z,8.70
2023-04-21T22:52:27.423Z,8.60
2023-04-21T22:54:54.684Z,8.40
2023-04-21T22:57:21.854Z,8.70
2023-04-21T22:59:48.663Z,8.80
2023-04-21T23:02:16.010Z,8.80
2023-04-21T23:04:42.968Z,8.70
2023-04-21T23:07:09.833Z,8.70
2023-04-21T23:09:36.822Z,8.60
2023-04-21T23:12:06.221Z,8.50
2023-04-21T23:14:33.223Z,8.40
2023-04-21T23:17:00.334Z,8.40
2023-04-21T23:19:27.245Z,8.50
2023-04-21T23:21:54.131Z,8.30
2023-04-21T23:24:20.979Z,8.30
2023-04-21T23:26:47.764Z,8.30
2023-04-21T23:29:14.654Z,8.40
2023-04-21T23:31:41.585Z,8.30
2023-04-21T23:34:08.510Z,8.30
2023-04-21T23:36:35.940Z,8.20
2023-04-21T23:39:06.292Z,8.10
2023-04-21T23:41:33.192Z,8.00
2023-04-21T23:44:00.069Z,8.00
2023-04-21T23:46:26.958Z,8.00
2023-04-21T23:48:53.839Z,8.00
2023-04-21T23:51:22.055Z,8.10
2023-04-21T23:53:48.983Z,8.20
2023-04-21T23:56:15.880Z,8.10
2023-04-21T23:58:42.660Z,8.00
